Time;durP1;ratioP1;P1;durP2;ratioP2;P2;SDS_P1;SDS_P2;PMS_P1;PMS_P2;Temp;Humidity;BMP_temperature;BMP_pressure;BME280_temperature;BME280_humidity;BME280_pressure;Samples;Min_cycle;Max_cycle;Signal;HPM_P1;HPM_P2
2024/01/01 00:00:19;;;;;;;15.97;10.10;;;;;;;13.41;46.61;99414.66;688349;28;1170;-89
2024/01/01 00:00:41;;;;;;;16.48;10.48;;;;;;;13.45;46.83;99416.38;688134;28;1088;-89
2024/01/01 00:01:06;;;;;;;14.53;9.67;;;;;;;13.35;46.31;99423.44;682796;28;1160;-88
2024/01/01 00:01:26;;;;;;;15.00;9.77;;;;;;;13.41;46.28;99431.25;685138;28;1572;-90
2024/01/01 00:01:48;;;;;;;13.73;9.15;;;;;;;13.46;46.60;99423.34;688076;28;1202;-89
2024/01/01 00:02:09;;;;;;;15.32;9.35;;;;;;;13.47;46.54;99422.50;687691;28;1281;-89
2024/01/01 00:02:30;;;;;;;14.07;8.50;;;;;;;13.45;46.38;99436.47;685545;28;1212;-90
2024/01/01 00:02:50;;;;;;;17.30;8.77;;;;;;;13.40;46.29;99419.03;682901;29;775;-90
2024/01/01 00:03:11;;;;;;;15.82;8.38;;;;;;;13.48;46.14;99436.47;685086;28;1189;-91
2024/01/01 00:03:32;;;;;;;16.80;9.07;;;;;;;13.45;46.26;99426.00;684979;28;1289;-90
2024/01/01 00:03:52;;;;;;;16.80;8.93;;;;;;;13.47;46.69;99421.63;682923;29;865;-89
2024/01/01 00:04:13;;;;;;;24.60;9.88;;;;;;;13.45;46.10;99426.00;685154;28;1279;-91
2024/01/01 00:04:34;;;;;;;25.10;9.63;;;;;;;13.51;46.27;99429.44;690746;28;1250;-90
2024/01/01 00:04:56;;;;;;;22.40;9.80;;;;;;;13.51;46.07;99421.59;682736;28;1304;-90
2024/01/01 00:05:16;;;;;;;15.13;9.30;;;;;;;13.56;46.10;99418.94;681123;28;1282;-90
2024/01/01 00:05:37;;;;;;;15.50;9.67;;;;;;;13.59;46.55;99424.19;685545;28;1217;-90
2024/01/01 00:05:58;;;;;;;18.10;9.98;;;;;;;13.60;46.62;99430.28;682885;29;1226;-90
2024/01/01 00:06:19;;;;;;;17.63;9.98;;;;;;;13.61;46.82;99417.16;685263;28;1218;-91
2024/01/01 00:06:40;;;;;;;15.95;9.60;;;;;;;13.64;47.23;99438.09;690281;28;1219;-89
2024/01/01 00:07:00;;;;;;;15.65;9.43;;;;;;;13.56;46.50;99429.41;685278;28;1195;-88
2024/01/01 00:07:21;;;;;;;17.00;9.67;;;;;;;13.53;46.70;99430.31;685051;28;1335;-90
2024/01/01 00:07:41;;;;;;;16.63;9.10;;;;;;;13.54;46.63;99432.03;685415;28;1284;-91
2024/01/01 00:08:02;;;;;;;14.57;8.77;;;;;;;13.58;46.64;99435.50;685142;28;1199;-90
2024/01/01 00:08:22;;;;;;;14.48;8.48;;;;;;;13.54;46.97;99418.94;692701;28;1168;-89
2024/01/01 00:08:43;;;;;;;16.67;9.18;;;;;;;13.59;47.02;99428.53;688592;28;1382;-90
2024/01/01 00:09:04;;;;;;;18.10;9.50;;;;;;;13.55;47.43;99422.44;677372;29;1310;-90
2024/01/01 00:09:24;;;;;;;18.60;9.50;;;;;;;13.58;47.25;99427.66;684561;28;1272;-90
2024/01/01 00:09:45;;;;;;;17.35;9.30;;;;;;;13.45;46.53;99431.25;682760;28;1182;-89
2024/01/01 00:10:06;;;;;;;19.57;9.30;;;;;;;13.53;47.04;99424.22;685381;28;1338;-90
2024/01/01 00:10:26;;;;;;;19.17;9.40;;;;;;;13.50;46.99;99421.59;685093;28;1289;-90
2024/01/01 00:10:47;;;;;;;20.48;9.35;;;;;;;13.50;46.94;99424.19;685479;28;1240;-91
2024/01/01 00:11:08;;;;;;;17.20;8.97;;;;;;;13.48;47.24;99460.03;684612;28;1293;-89
2024/01/01 00:11:28;;;;;;;17.40;8.70;;;;;;;13.41;47.19;99420.75;685313;28;1233;-90
2024/01/01 00:11:49;;;;;;;18.60;8.80;;;;;;;13.43;47.13;99423.38;688279;28;1306;-90
2024/01/01 00:12:09;;;;;;;24.07;9.30;;;;;;;13.48;47.52;99420.72;685291;28;1291;-90
2024/01/01 00:12:31;;;;;;;20.80;9.07;;;;;;;13.51;47.35;99415.50;685277;28;1911;-90
2024/01/01 00:12:52;;;;;;;19.27;9.20;;;;;;;13.51;47.48;99424.19;688177;28;1691;-89
2024/01/01 00:13:13;;;;;;;14.13;8.80;;;;;;;13.46;47.02;99422.50;688083;28;1222;-89
2024/01/01 00:13:33;;;;;;;16.73;8.95;;;;;;;13.48;47.40;99432.09;687700;28;965;-89
2024/01/01 00:13:54;;;;;;;19.13;8.87;;;;;;;13.42;47.19;99427.72;690738;28;952;-89
2024/01/01 00:14:14;;;;;;;20.38;9.52;;;;;;;13.48;47.29;99418.09;692501;28;1104;-90
2024/01/01 00:14:35;;;;;;;18.13;9.23;;;;;;;13.37;47.34;99413.81;682787;28;1422;-89
2024/01/01 00:14:55;;;;;;;19.05;9.32;;;;;;;13.42;46.97;99412.00;688367;28;1820;-90
2024/01/01 00:15:16;;;;;;;18.25;9.18;;;;;;;13.40;47.13;99416.41;689456;28;1217;-90
2024/01/01 00:15:47;;;;;;;23.20;14.10;;;;;;;13.36;48.77;99414.69;699697;27;20627;-88
2024/01/01 00:16:08;;;;;;;20.10;14.00;;;;;;;13.41;49.43;99420.75;693040;28;1645;-89
2024/01/01 00:16:28;;;;;;;19.23;13.52;;;;;;;13.39;49.81;99419.06;687526;28;1196;-89
2024/01/01 00:16:49;;;;;;;16.57;12.93;;;;;;;13.38;49.93;99436.50;687538;28;1177;-89
2024/01/01 00:17:09;;;;;;;16.92;12.77;;;;;;;13.32;50.49;99410.34;684371;28;1686;-88
2024/01/01 00:17:30;;;;;;;19.10;13.40;;;;;;;13.29;50.56;99410.34;684833;28;1062;-89
2024/01/01 00:17:51;;;;;;;20.30;13.40;;;;;;;13.35;50.65;99417.31;690324;28;1150;-89
2024/01/01 00:18:13;;;;;;;18.48;11.57;;;;;;;13.32;50.28;99427.81;684548;28;1576;-88
2024/01/01 00:18:33;;;;;;;19.48;9.50;;;;;;;13.24;49.20;99422.59;687628;28;1040;-88
2024/01/01 00:18:54;;;;;;;20.57;8.73;;;;;;;13.24;48.50;99422.59;687741;28;812;-89
2024/01/01 00:19:15;;;;;;;21.83;9.15;;;;;;;13.23;48.55;99426.97;687329;28;1489;-89
2024/01/01 00:19:36;;;;;;;16.17;8.80;;;;;;;13.23;48.63;99420.88;684987;28;1726;-88
2024/01/01 00:19:59;;;;;;;16.20;9.17;;;;;;;13.27;48.12;99417.38;682203;29;1492;-88
2024/01/01 00:20:20;;;;;;;17.70;9.00;;;;;;;13.32;47.84;99428.66;683284;28;1594;-88
2024/01/01 00:20:41;;;;;;;17.45;9.18;;;;;;;13.26;47.27;99415.59;686382;28;1714;-89
2024/01/01 00:21:02;;;;;;;19.50;9.77;;;;;;;13.20;47.17;99431.38;684991;28;1304;-89
2024/01/01 00:21:22;;;;;;;21.23;10.82;;;;;;;13.30;46.97;99417.34;689213;28;1601;-88
2024/01/01 00:21:43;;;;;;;20.83;10.33;;;;;;;13.36;46.91;99422.56;690340;28;781;-89
2024/01/01 00:22:03;;;;;;;21.20;9.65;;;;;;;13.22;46.39;99404.25;687592;28;1142;-88
2024/01/01 00:22:24;;;;;;;21.45;9.27;;;;;;;13.29;45.89;99415.59;684520;28;1437;-89
2024/01/01 00:22:47;;;;;;;20.00;8.73;;;;;;;13.37;46.65;99419.06;685095;28;756;-88
2024/01/01 00:23:07;;;;;;;18.80;9.52;;;;;;;13.42;46.65;99411.16;690266;28;1372;-89
2024/01/01 00:23:28;;;;;;;19.25;9.93;;;;;;;13.48;46.63;99415.50;686763;28;1486;-89
2024/01/01 00:23:48;;;;;;;17.40;10.47;;;;;;;13.46;46.87;99417.25;687561;28;848;-89
2024/01/01 00:24:27;;;;;;;17.42;10.05;;;;;;;13.31;46.25;99413.84;684838;28;1239;-88
2024/01/01 00:24:48;;;;;;;16.05;9.32;;;;;;;13.29;45.91;99407.75;685048;28;1564;-88
2024/01/01 00:25:09;;;;;;;14.95;9.20;;;;;;;13.42;46.41;99406.78;690178;28;1285;-88
2024/01/01 00:25:35;;;;;;;12.13;8.33;;;;;;;13.36;46.11;99406.84;681902;28;1469;-89
2024/01/01 00:25:56;;;;;;;13.55;8.70;;;;;;;13.38;46.09;99415.53;684896;28;824;-89
2024/01/01 00:26:16;;;;;;;15.07;9.15;;;;;;;13.38;46.23;99418.16;686340;28;1477;-89
2024/01/01 00:26:38;;;;;;;16.88;9.90;;;;;;;13.43;46.13;99424.25;687581;28;1127;-89
2024/01/01 00:27:00;;;;;;;15.77;9.70;;;;;;;13.43;46.13;99408.53;681990;29;1348;-88
2024/01/01 00:27:21;;;;;;;15.18;9.13;;;;;;;13.49;46.67;99411.97;681825;28;1491;-89
2024/01/01 00:27:41;;;;;;;15.73;8.95;;;;;;;13.45;46.61;99408.50;684930;28;1103;-89
2024/01/01 00:28:05;;;;;;;16.93;9.00;;;;;;;13.43;46.71;99410.28;686931;28;1157;-88
2024/01/01 00:28:26;;;;;;;19.85;9.45;;;;;;;13.44;46.39;99409.41;687272;28;1075;-89
2024/01/01 00:28:47;;;;;;;21.30;9.90;;;;;;;13.48;46.44;99413.75;687601;28;1135;-88
2024/01/01 00:29:09;;;;;;;22.25;9.60;;;;;;;13.43;46.51;99407.66;687598;28;1112;-89
2024/01/01 00:29:30;;;;;;;20.77;9.55;;;;;;;13.47;46.44;99419.88;684649;28;1562;-89
2024/01/01 00:29:50;;;;;;;17.42;8.82;;;;;;;13.50;46.44;99408.47;684958;28;1168;-89
2024/01/01 00:30:11;;;;;;;18.80;9.07;;;;;;;13.49;46.72;99407.63;684827;28;1194;-89
2024/01/01 00:30:33;;;;;;;17.65;9.07;;;;;;;13.49;46.42;99406.75;684815;28;958;-88
2024/01/01 00:30:54;;;;;;;18.75;9.32;;;;;;;13.47;46.41;99408.50;682246;29;1259;-89
2024/01/01 00:31:14;;;;;;;14.80;9.20;;;;;;;13.53;46.62;99414.56;687111;28;1490;-89
2024/01/01 00:31:39;;;;;;;14.30;9.10;;;;;;;13.53;46.80;99411.97;682138;29;1359;-89
2024/01/01 00:31:59;;;;;;;14.52;9.10;;;;;;;13.55;46.98;99419.81;682083;29;869;-88
2024/01/01 00:32:20;;;;;;;13.75;8.73;;;;;;;13.53;47.04;99413.72;684772;28;1578;-90
2024/01/01 00:32:41;;;;;;;12.67;8.30;;;;;;;13.42;46.47;99417.25;684944;28;1185;-89
2024/01/01 00:33:01;;;;;;;13.18;8.65;;;;;;;13.47;46.70;99412.00;686689;28;1085;-89
2024/01/01 00:33:22;;;;;;;14.13;8.70;;;;;;;13.56;46.93;99414.56;687201;28;1645;-89
2024/01/01 00:33:42;;;;;;;15.63;8.70;;;;;;;13.55;47.29;99419.81;690278;28;1064;-89
2024/01/01 00:34:03;;;;;;;16.03;8.40;;;;;;;13.49;47.20;99411.97;687312;28;1171;-89
2024/01/01 00:34:24;;;;;;;17.30;8.85;;;;;;;13.45;47.05;99416.38;687222;28;1529;-89
2024/01/01 00:34:44;;;;;;;15.13;8.60;;;;;;;13.49;47.35;99401.50;687727;28;1239;-88
2024/01/01 00:35:05;;;;;;;16.63;8.73;;;;;;;13.56;47.11;99432.03;687478;28;1121;-89
2024/01/01 00:35:26;;;;;;;16.13;8.40;;;;;;;13.49;46.85;99411.97;684679;28;1973;-89
2024/01/01 00:35:48;;;;;;;19.47;9.50;;;;;;;13.35;46.37;99410.34;687516;28;1214;-88
2024/01/01 00:36:08;;;;;;;17.38;8.60;;;;;;;13.40;46.57;99407.69;684869;28;969;-88
2024/01/01 00:36:29;;;;;;;21.42;8.60;;;;;;;13.33;46.43;99409.44;681728;28;1570;-89
2024/01/01 00:36:50;;;;;;;21.13;8.10;;;;;;;13.35;46.35;99415.56;687564;28;1171;-88
2024/01/01 00:37:54;;;;;;;21.73;9.35;;;;;;;13.50;46.13;99426.81;689898;28;1570;-87
2024/01/01 00:38:33;;;;;;;18.08;8.50;;;;;;;13.48;45.89;99419.00;690322;28;716;-89
2024/01/01 00:38:59;;;;;;;15.90;8.50;;;;;;;13.46;45.79;99412.00;683236;28;1404;-88
2024/01/01 00:39:20;;;;;;;18.23;8.80;;;;;;;13.51;46.30;99405.84;681902;28;1451;-89
2024/01/01 00:39:41;;;;;;;18.17;8.63;;;;;;;13.52;46.13;99406.75;682344;29;1224;-88
2024/01/01 00:40:02;;;;;;;16.60;8.35;;;;;;;13.46;45.63;99409.41;687506;28;1373;-89
2024/01/01 00:40:23;;;;;;;13.98;8.10;;;;;;;13.51;45.94;99405.00;687257;28;1513;-88
2024/01/01 00:40:43;;;;;;;16.57;8.13;;;;;;;13.47;45.73;99409.41;682186;28;1418;-88
2024/01/01 00:41:04;;;;;;;19.20;8.48;;;;;;;13.43;45.82;99402.41;682309;29;1137;-89
2024/01/01 00:41:25;;;;;;;19.40;8.70;;;;;;;13.45;45.64;99403.28;689916;28;1567;-89
2024/01/01 00:41:46;;;;;;;19.17;8.40;;;;;;;13.53;45.64;99411.09;687565;28;1171;-89
2024/01/01 00:42:07;;;;;;;16.42;8.13;;;;;;;13.55;45.92;99404.97;682334;28;1187;-89
2024/01/01 00:42:27;;;;;;;17.30;7.70;;;;;;;13.53;45.79;99405.84;682366;28;1479;-89
2024/01/01 00:42:48;;;;;;;14.98;7.30;;;;;;;13.48;46.05;99402.38;682370;29;938;-89
2024/01/01 00:43:10;;;;;;;17.52;7.60;;;;;;;13.56;45.96;99408.44;685012;28;1281;-90
2024/01/01 00:43:32;;;;;;;14.15;7.80;;;;;;;13.58;45.78;99409.31;681633;28;1240;-89
2024/01/01 00:43:53;;;;;;;13.90;8.18;;;;;;;13.63;45.93;99404.06;684929;28;1532;-90
2024/01/01 00:44:13;;;;;;;14.15;8.38;;;;;;;13.63;46.35;99414.53;684801;28;1605;-89
2024/01/01 00:44:34;;;;;;;16.67;8.80;;;;;;;13.48;45.66;99402.38;684930;28;1262;-89
2024/01/01 00:44:55;;;;;;;18.15;9.18;;;;;;;13.38;45.55;99405.06;684909;28;796;-89
2024/01/01 00:45:15;;;;;;;17.37;9.00;;;;;;;13.50;45.71;99403.25;684539;28;1686;-88
2024/01/01 00:45:36;;;;;;;15.57;8.80;;;;;;;13.47;45.61;99400.66;684714;28;1186;-89
2024/01/01 00:45:56;;;;;;;14.77;8.80;;;;;;;13.52;45.66;99404.13;687657;28;750;-89
2024/01/01 00:46:17;;;;;;;15.30;9.30;;;;;;;13.55;45.85;99406.72;687214;28;1542;-89
2024/01/01 00:46:38;;;;;;;15.25;9.00;;;;;;;13.55;45.76;99411.97;684729;28;1105;-89
2024/01/01 00:47:10;;;;;;;15.20;8.77;;;;;;;13.42;45.50;99406.78;684976;28;1172;-88
2024/01/01 00:47:31;;;;;;;12.32;7.65;;;;;;;13.42;45.51;99406.78;684973;28;1291;-88
2024/01/01 00:47:52;;;;;;;11.00;7.20;;;;;;;13.51;45.52;99408.47;687641;28;1105;-89
2024/01/01 00:48:12;;;;;;;13.68;7.30;;;;;;;13.53;45.48;99411.09;687377;28;1622;-88
2024/01/01 00:48:33;;;;;;;14.45;7.95;;;;;;;13.54;45.62;99410.22;687444;28;1356;-89
2024/01/01 00:48:54;;;;;;;14.83;8.10;;;;;;;13.58;45.57;99414.53;684867;28;1391;-90
2024/01/01 00:49:14;;;;;;;12.07;8.03;;;;;;;13.57;45.51;99420.66;686778;28;1494;-89
2024/01/01 00:49:35;;;;;;;14.38;8.60;;;;;;;13.60;45.18;99415.44;687440;28;985;-89
2024/01/01 00:49:57;;;;;;;14.77;8.80;;;;;;;13.41;45.02;99415.50;687394;28;1294;-88
2024/01/01 00:50:18;;;;;;;16.77;8.88;;;;;;;13.56;45.64;99411.97;684569;28;1605;-89
2024/01/01 00:50:39;;;;;;;20.67;9.02;;;;;;;13.59;45.27;99416.31;679396;29;1161;-89
2024/01/01 00:50:59;;;;;;;23.80;8.97;;;;;;;13.63;45.72;99411.94;687511;28;1259;-89
2024/01/01 00:51:20;;;;;;;19.73;9.00;;;;;;;13.60;45.40;99420.66;687200;28;1539;-88
2024/01/01 00:51:40;;;;;;;16.13;8.77;;;;;;;13.65;45.51;99412.78;684861;28;1133;-89
2024/01/01 00:52:01;;;;;;;15.95;8.80;;;;;;;13.57;45.30;99418.94;690296;28;1064;-89
2024/01/01 00:52:22;;;;;;;15.30;8.10;;;;;;;13.51;44.89;99407.63;687327;28;1050;-89
2024/01/01 00:52:42;;;;;;;15.60;8.10;;;;;;;13.60;45.16;99399.69;687539;28;1034;-89
2024/01/01 00:53:03;;;;;;;20.80;7.90;;;;;;;13.60;45.11;99406.69;682061;28;1169;-89
2024/01/01 00:53:24;;;;;;;25.37;8.33;;;;;;;13.66;45.13;99414.50;684317;28;1476;-89
2024/01/01 00:53:44;;;;;;;24.70;8.05;;;;;;;13.64;45.25;99401.41;680332;28;1352;-88
2024/01/01 00:54:05;;;;;;;20.03;9.00;;;;;;;13.64;45.24;99401.41;684199;28;1631;-87
2024/01/01 00:54:28;;;;;;;21.87;9.50;;;;;;;13.59;44.73;99408.44;689002;28;1535;-89
2024/01/01 00:54:48;;;;;;;19.95;8.98;;;;;;;13.59;44.93;99424.19;687388;28;1196;-90
2024/01/01 00:55:09;;;;;;;19.00;8.55;;;;;;;13.63;44.94;99430.28;689314;28;1263;-88
2024/01/01 00:55:31;;;;;;;14.55;7.90;;;;;;;13.62;44.98;99400.56;686914;28;1894;-88
2024/01/01 00:55:52;;;;;;;16.77;8.38;;;;;;;13.65;45.20;99418.03;690168;28;1304;-89
2024/01/01 00:56:13;;;;;;;14.63;8.10;;;;;;;13.59;44.96;99397.97;687085;28;1520;-88
2024/01/01 00:56:34;;;;;;;18.73;8.85;;;;;;;13.73;45.04;99425.81;687480;28;1238;-89
2024/01/01 00:56:55;;;;;;;19.42;8.60;;;;;;;13.67;45.01;99409.28;687483;28;1165;-89
2024/01/01 00:57:15;;;;;;;22.45;8.98;;;;;;;13.69;45.02;99409.25;682458;28;1646;-88
2024/01/01 00:57:36;;;;;;;19.13;8.73;;;;;;;13.65;44.98;99408.38;684572;28;1668;-88
2024/01/01 00:57:57;;;;;;;19.13;8.98;;;;;;;13.64;44.54;99401.41;682261;29;749;-88
2024/01/01 00:58:18;;;;;;;18.00;9.00;;;;;;;13.65;44.76;99405.75;681877;28;1581;-89
2024/01/01 00:58:39;;;;;;;19.15;8.75;;;;;;;13.61;44.69;99406.69;679454;29;1230;-90
2024/01/01 00:58:59;;;;;;;18.58;8.50;;;;;;;13.66;45.20;99402.25;684693;28;1454;-88
2024/01/01 00:59:21;;;;;;;21.27;8.80;;;;;;;13.71;45.04;99403.09;684572;28;1541;-88
2024/01/01 00:59:41;;;;;;;20.13;9.00;;;;;;;13.74;45.14;99407.47;684726;28;1100;-88
2024/01/01 01:01:47;;;;;;;15.98;8.65;;;;;;;13.67;45.07;99398.78;694480;28;1597;-88
2024/01/01 01:02:08;;;;;;;15.10;8.80;;;;;;;13.62;44.65;99403.19;697965;28;1718;-88
2024/01/01 01:02:28;;;;;;;14.25;8.80;;;;;;;13.59;44.65;99418.94;690059;28;1489;-88
2024/01/01 01:02:49;;;;;;;14.55;9.07;;;;;;;13.52;44.57;99419.84;687646;28;1408;-90
2024/01/01 01:03:09;;;;;;;15.32;9.23;;;;;;;13.37;44.01;99413.81;682042;29;1210;-88
2024/01/01 01:03:31;;;;;;;13.70;8.20;;;;;;;13.40;44.10;99418.16;680971;28;1725;-88
2024/01/01 01:03:52;;;;;;;13.43;7.97;;;;;;;13.57;44.32;99421.56;682345;28;1623;-89
2024/01/01 01:04:13;;;;;;;12.82;8.05;;;;;;;13.51;44.20;99415.50;684287;28;1474;-88
2024/01/01 01:04:33;;;;;;;12.57;8.70;;;;;;;13.52;44.19;99417.22;684794;28;1184;-88
2024/01/01 01:04:54;;;;;;;13.70;8.63;;;;;;;13.60;44.03;99404.06;682149;29;1189;-89
2024/01/01 01:05:15;;;;;;;15.80;9.18;;;;;;;13.46;43.91;99415.50;681920;28;1566;-89
2024/01/01 01:05:35;;;;;;;16.90;9.10;;;;;;;13.62;43.82;99413.66;683206;28;1524;-87
2024/01/01 01:05:56;;;;;;;15.50;8.75;;;;;;;13.70;43.88;99422.34;682111;28;1150;-89
2024/01/01 01:06:19;;;;;;;16.17;8.35;;;;;;;13.60;43.83;99420.66;687202;28;1647;-89
2024/01/01 01:06:39;;;;;;;17.50;8.57;;;;;;;13.65;43.61;99415.41;682143;28;1350;-88
2024/01/01 01:07:01;;;;;;;17.48;8.60;;;;;;;13.65;43.69;99413.63;684847;28;1146;-89
2024/01/01 01:07:21;;;;;;;16.65;8.57;;;;;;;13.63;43.49;99431.13;687137;28;1667;-88
2024/01/01 01:07:42;;;;;;;14.50;8.45;;;;;;;13.60;43.68;99410.19;679248;28;1142;-89
2024/01/01 01:08:03;;;;;;;13.50;8.40;;;;;;;13.81;43.54;99416.16;687441;28;1615;-88
2024/01/01 01:08:23;;;;;;;15.20;9.00;;;;;;;13.61;43.44;99401.44;684467;28;1480;-89
2024/01/01 01:08:44;;;;;;;16.17;9.13;;;;;;;13.73;43.71;99418.84;682399;29;1336;-89
2024/01/01 01:09:04;;;;;;;18.27;9.77;;;;;;;13.60;43.26;99425.91;682067;28;1289;-88
2024/01/01 01:09:25;;;;;;;16.00;9.13;;;;;;;13.70;43.37;99424.97;687187;28;1510;-88
2024/01/01 01:09:46;;;;;;;14.48;8.50;;;;;;;13.73;43.51;99416.22;684892;28;812;-89
2024/01/01 01:10:07;;;;;;;12.93;7.80;;;;;;;13.82;43.86;99420.50;690174;28;1294;-90
2024/01/01 01:10:27;;;;;;;14.20;8.00;;;;;;;13.82;43.79;99415.25;689836;28;1641;-89
2024/01/01 01:10:49;;;;;;;15.10;8.60;;;;;;;13.79;43.63;99405.69;684877;28;867;-89
2024/01/01 01:11:09;;;;;;;16.08;8.70;;;;;;;13.81;43.71;99405.66;687411;28;1319;-87
2024/01/01 01:11:30;;;;;;;16.55;9.00;;;;;;;13.70;43.88;99422.34;689667;28;1506;-88
2024/01/01 01:11:51;;;;;;;15.75;8.80;;;;;;;13.77;43.50;99407.44;684645;28;1231;-89
2024/01/01 01:12:12;;;;;;;14.93;9.23;;;;;;;13.71;43.44;99434.56;684420;28;1446;-88
2024/01/01 01:12:32;;;;;;;17.70;9.50;;;;;;;13.71;43.44;99412.75;687471;28;1193;-89
2024/01/01 01:12:53;;;;;;;18.27;9.98;;;;;;;13.79;43.48;99436.28;687323;28;1709;-90
2024/01/01 01:13:14;;;;;;;18.23;9.05;;;;;;;13.75;43.44;99410.97;687097;28;1492;-88
2024/01/01 01:13:35;;;;;;;14.73;8.80;;;;;;;13.76;43.55;99410.09;684184;28;1161;-89
2024/01/01 01:13:56;;;;;;;18.98;8.57;;;;;;;13.68;43.54;99410.13;684768;28;1283;-88
2024/01/01 01:14:16;;;;;;;19.42;9.10;;;;;;;13.77;43.32;99433.66;681698;28;1506;-89
2024/01/01 01:14:37;;;;;;;20.48;9.30;;;;;;;13.61;43.47;99393.56;679342;28;1289;-88
2024/01/01 01:14:58;;;;;;;16.80;9.38;;;;;;;13.61;43.32;99417.16;682099;29;1704;-89
2024/01/01 01:15:18;;;;;;;16.97;9.30;;;;;;;13.67;43.25;99411.88;684382;28;1577;-89
2024/01/01 01:15:39;;;;;;;18.77;9.43;;;;;;;13.70;43.06;99400.50;684762;28;1926;-88
2024/01/01 01:16:00;;;;;;;17.40;8.70;;;;;;;13.70;43.10;99401.38;683745;28;1310;-89
2024/01/01 01:16:20;;;;;;;16.77;8.83;;;;;;;13.76;43.35;99437.16;681780;28;1486;-87
2024/01/01 01:16:41;;;;;;;14.73;8.93;;;;;;;13.63;43.07;99410.16;679455;29;1271;-89
2024/01/01 01:17:01;;;;;;;17.48;9.77;;;;;;;13.65;43.03;99415.41;687325;28;1133;-88
2024/01/01 01:17:22;;;;;;;17.60;9.43;;;;;;;13.77;43.08;99406.56;687759;28;1461;-89
2024/01/01 01:17:42;;;;;;;17.48;9.45;;;;;;;13.79;43.40;99404.81;684280;28;1289;-89
2024/01/01 01:18:03;;;;;;;14.57;9.10;;;;;;;13.84;43.35;99403.03;687438;28;1185;-88
2024/01/01 01:18:24;;;;;;;13.48;8.98;;;;;;;13.81;43.26;99419.66;681776;28;1564;-89
2024/01/01 01:18:44;;;;;;;13.30;8.70;;;;;;;13.83;43.24;99417.88;679435;29;1469;-89
2024/01/01 01:19:05;;;;;;;14.80;8.93;;;;;;;13.79;43.52;99420.53;682117;29;1055;-88
2024/01/01 01:19:26;;;;;;;16.00;9.30;;;;;;;13.80;43.34;99403.91;684273;28;1483;-89
2024/01/01 01:19:46;;;;;;;16.83;9.33;;;;;;;13.84;43.50;99400.41;682072;28;1293;-88
2024/01/01 01:20:07;;;;;;;16.08;9.10;;;;;;;13.87;43.68;99403.00;681721;29;1570;-88
2024/01/01 01:20:28;;;;;;;16.50;9.52;;;;;;;13.95;43.81;99401.19;683662;28;1484;-89
2024/01/01 01:20:49;;;;;;;15.77;9.80;;;;;;;13.81;43.78;99392.56;684664;28;1369;-88
2024/01/01 01:21:10;;;;;;;16.10;9.90;;;;;;;13.82;43.62;99402.16;689933;28;1135;-89
2024/01/01 01:21:30;;;;;;;15.90;9.38;;;;;;;13.80;43.90;99396.06;679377;28;1536;-89
2024/01/01 01:21:51;;;;;;;15.52;9.60;;;;;;;13.74;43.64;99393.47;681869;28;1643;-88
2024/01/01 01:22:12;;;;;;;18.60;9.68;;;;;;;13.82;43.74;99402.16;682037;28;1410;-88
2024/01/01 01:22:32;;;;;;;21.65;10.10;;;;;;;13.76;43.39;99389.13;683568;28;1517;-88
2024/01/01 01:22:53;;;;;;;21.83;9.70;;;;;;;13.74;43.56;99409.19;684801;28;1307;-88
2024/01/01 01:23:14;;;;;;;16.83;9.18;;;;;;;13.76;44.27;99399.59;687160;28;1592;-89
2024/01/01 01:23:34;;;;;;;16.35;9.10;;;;;;;13.80;44.12;99409.16;684279;28;1675;-88
2024/01/01 01:23:55;;;;;;;16.37;9.43;;;;;;;13.80;44.19;99402.19;687363;28;1285;-88
2024/01/01 01:24:18;;;;;;;17.35;9.55;;;;;;;13.80;44.54;99390.81;687127;28;1250;-89
2024/01/01 01:24:38;;;;;;;16.58;9.52;;;;;;;13.85;44.60;99415.25;684696;28;1359;-89
2024/01/01 01:24:59;;;;;;;19.60;9.60;;;;;;;13.76;44.36;99399.59;682042;28;1240;-89
2024/01/01 01:25:20;;;;;;;21.20;10.30;;;;;;;13.78;44.61;99398.69;684294;28;1541;-89
2024/01/01 01:25:41;;;;;;;20.80;9.85;;;;;;;13.71;44.58;99391.78;680451;29;1354;-88
2024/01/01 01:26:02;;;;;;;20.70;10.30;;;;;;;13.74;44.81;99389.13;679291;29;1426;-89
2024/01/01 01:26:23;;;;;;;19.63;10.18;;;;;;;13.69;44.72;99394.41;681772;28;1502;-88
2024/01/01 01:26:43;;;;;;;18.80;9.97;;;;;;;13.67;44.81;99388.31;684869;28;819;-89
2024/01/01 01:27:04;;;;;;;15.95;9.65;;;;;;;13.78;44.99;99413.56;683574;28;1224;-88
2024/01/01 01:27:24;;;;;;;16.48;10.10;;;;;;;13.75;44.63;99396.09;687598;28;1449;-88
2024/01/01 01:27:45;;;;;;;15.33;10.40;;;;;;;13.76;44.98;99403.06;682988;29;1217;-89
2024/01/01 01:28:06;;;;;;;16.55;10.15;;;;;;;13.77;45.34;99407.44;685387;28;1180;-89
2024/01/01 01:28:27;;;;;;;17.52;10.13;;;;;;;13.64;44.97;99409.28;685349;28;1601;-89
2024/01/01 01:28:47;;;;;;;17.88;9.88;;;;;;;13.62;45.25;99404.91;677790;29;1408;-89
2024/01/01 01:29:09;;;;;;;18.17;9.93;;;;;;;13.57;44.76;99402.31;683026;29;998;-88
2024/01/01 01:29:30;;;;;;;19.10;9.85;;;;;;;13.51;44.49;99405.00;683079;28;1508;-88
2024/01/01 01:29:50;;;;;;;20.38;10.57;;;;;;;13.56;44.45;99405.81;682959;29;1272;-88
2024/01/01 01:30:11;;;;;;;19.35;10.65;;;;;;;13.50;44.31;99408.47;682690;29;1541;-88
2024/01/01 01:30:32;;;;;;;19.58;10.68;;;;;;;13.59;44.28;99405.81;682285;28;1442;-89
2024/01/01 01:30:53;;;;;;;19.60;10.43;;;;;;;13.63;44.41;99394.44;683088;29;1062;-89
2024/01/01 01:31:13;;;;;;;21.50;10.95;;;;;;;13.64;44.26;99411.03;682770;28;1509;-89
2024/01/01 01:31:34;;;;;;;19.55;11.00;;;;;;;13.63;44.31;99397.03;683577;28;1174;-89
2024/01/01 01:31:55;;;;;;;18.27;11.17;;;;;;;13.65;44.48;99397.91;682823;28;1213;-88
2024/01/01 01:32:15;;;;;;;19.67;11.65;;;;;;;13.63;44.68;99389.19;687557;28;1544;-90
2024/01/01 01:32:37;;;;;;;18.88;11.57;;;;;;;13.62;44.33;99392.69;685531;28;1516;-88
2024/01/01 01:32:57;;;;;;;20.67;11.52;;;;;;;13.73;44.83;99395.25;682906;29;1351;-89
2024/01/01 01:33:18;;;;;;;21.17;11.43;;;;;;;13.73;44.66;99391.75;678499;29;3245;-88
2024/01/01 01:33:39;;;;;;;24.30;12.17;;;;;;;13.78;45.04;99393.44;680186;29;2758;-88
2024/01/01 01:33:59;;;;;;;27.30;13.18;;;;;;;13.76;45.07;99389.13;682407;29;2705;-89
2024/01/01 01:34:21;;;;;;;26.00;13.48;;;;;;;13.81;45.28;99408.28;682413;28;2266;-88
2024/01/01 01:34:42;;;;;;;24.90;13.10;;;;;;;13.71;45.13;99399.63;681943;29;2357;-87
2024/01/01 01:35:04;;;;;;;24.60;12.98;;;;;;;13.73;45.24;99403.09;677402;29;1275;-89
2024/01/01 01:35:24;;;;;;;21.35;12.43;;;;;;;13.68;44.63;99423.22;677047;29;1911;-89
2024/01/01 01:35:45;;;;;;;22.83;12.97;;;;;;;13.64;44.78;99401.41;683005;29;1237;-87
2024/01/01 01:36:06;;;;;;;20.00;12.38;;;;;;;13.66;44.87;99410.13;682670;28;1185;-89
2024/01/01 01:36:27;;;;;;;21.25;12.63;;;;;;;13.52;44.29;99401.50;677201;29;1655;-89
2024/01/01 01:36:47;;;;;;;20.00;11.95;;;;;;;13.58;44.63;99406.69;682934;28;820;-89
2024/01/01 01:37:08;;;;;;;22.03;12.63;;;;;;;13.52;44.45;99396.25;680545;29;1342;-88
2024/01/01 01:37:29;;;;;;;23.17;12.75;;;;;;;13.60;44.55;99402.31;676967;29;1471;-88
2024/01/01 01:37:50;;;;;;;24.02;13.05;;;;;;;13.47;44.41;99391.06;680316;29;1250;-88
2024/01/01 01:38:10;;;;;;;24.52;12.52;;;;;;;13.49;43.90;99417.22;682901;28;1109;-89
2024/01/01 01:38:34;;;;;;;24.05;12.68;;;;;;;13.56;44.23;99404.09;685775;28;1668;-88
2024/01/01 01:38:55;;;;;;;27.90;12.75;;;;;;;13.58;44.35;99430.28;685514;28;906;-87
2024/01/01 01:39:16;;;;;;;25.92;12.82;;;;;;;13.55;44.32;99402.34;683616;28;2241;-88
2024/01/01 01:39:37;;;;;;;24.57;12.73;;;;;;;13.60;43.95;99417.16;680279;29;1257;-86
2024/01/01 01:39:57;;;;;;;21.70;12.57;;;;;;;13.62;43.96;99424.16;680313;28;1153;-89
2024/01/01 01:40:18;;;;;;;22.35;12.35;;;;;;;13.70;44.44;99409.22;677285;29;1641;-88
2024/01/01 01:40:39;;;;;;;22.43;12.53;;;;;;;13.54;43.81;99397.13;680094;29;1186;-89
2024/01/01 01:40:59;;;;;;;20.58;12.57;;;;;;;13.62;43.96;99403.19;682946;29;1370;-89
2024/01/01 01:41:20;;;;;;;24.33;13.30;;;;;;;13.68;44.19;99397.00;682567;28;1456;-89
2024/01/01 01:41:41;;;;;;;25.90;12.55;;;;;;;13.62;44.03;99399.66;680071;29;1278;-89
2024/01/01 01:42:01;;;;;;;25.97;12.53;;;;;;;13.73;44.23;99425.81;682739;29;1225;-87
2024/01/01 01:42:22;;;;;;;21.67;11.77;;;;;;;13.61;44.96;99427.66;679825;29;1559;-88
2024/01/01 01:42:46;;;;;;;18.90;11.90;;;;;;;13.56;44.01;99416.31;680105;29;1161;-89
2024/01/01 01:43:23;;;;;;;20.17;11.90;;;;;;;13.43;43.49;99398.06;680169;29;1398;-87